Terminal Aerodrome Forecast
Issued by NWS

Home | Current Version | Previous Version | Graphics & Text | Print | Product List | Glossary On
Versions: 1 2 3 4 5 6 7 8 9 10 11 12 13 14 15 16 17 18 19 20 21 22
528
FTUS43 KGRB 271733
TAFAUW
TAF
KAUW 271733Z 2718/2818 12008KT P6SM BKN070
     FM280300 13004KT 4SM BR VCSH BKN016 OVC070
      TEMPO 2803/2807 2SM -SHRA BR BKN006
     FM280700 13004KT 2SM BR VCSH BKN004 OVC020
     FM281500 17008KT 6SM -SHRA BR OVC014=

USA.gov is the U.S. government's official web portal to all federal, state and local government web resources and services.